sensor_id;sensor_type;location;lat;lon;timestamp;P1;durP1;ratioP1;P2;durP2;ratioP2
77864;SDS011;67061;48.524;9.040;2023-01-23T00:01:24;15.55;;;9.20;;
77864;SDS011;67061;48.524;9.040;2023-01-23T00:03:53;14.27;;;8.82;;
77864;SDS011;67061;48.524;9.040;2023-01-23T00:06:20;13.98;;;8.77;;
77864;SDS011;67061;48.524;9.040;2023-01-23T00:08:49;14.45;;;8.55;;
77864;SDS011;67061;48.524;9.040;2023-01-23T00:11:17;14.77;;;8.50;;
77864;SDS011;67061;48.524;9.040;2023-01-23T00:13:45;14.18;;;7.68;;
77864;SDS011;67061;48.524;9.040;2023-01-23T00:16:14;12.68;;;7.15;;
77864;SDS011;67061;48.524;9.040;2023-01-23T00:18:42;13.77;;;7.97;;
77864;SDS011;67061;48.524;9.040;2023-01-23T00:21:10;13.38;;;7.43;;
77864;SDS011;67061;48.524;9.040;2023-01-23T00:23:40;14.80;;;8.82;;
77864;SDS011;67061;48.524;9.040;2023-01-23T00:26:10;14.43;;;8.40;;
77864;SDS011;67061;48.524;9.040;2023-01-23T00:28:39;14.48;;;8.32;;
77864;SDS011;67061;48.524;9.040;2023-01-23T00:31:07;15.55;;;8.30;;
77864;SDS011;67061;48.524;9.040;2023-01-23T00:33:36;13.05;;;7.97;;
77864;SDS011;67061;48.524;9.040;2023-01-23T00:36:04;14.57;;;8.60;;
77864;SDS011;67061;48.524;9.040;2023-01-23T00:38:31;17.02;;;9.07;;
77864;SDS011;67061;48.524;9.040;2023-01-23T00:40:58;14.07;;;9.10;;
77864;SDS011;67061;48.524;9.040;2023-01-23T00:43:27;14.05;;;8.60;;
77864;SDS011;67061;48.524;9.040;2023-01-23T00:45:55;16.25;;;8.38;;
77864;SDS011;67061;48.524;9.040;2023-01-23T00:48:23;14.23;;;8.30;;
77864;SDS011;67061;48.524;9.040;2023-01-23T00:50:50;12.60;;;7.68;;
77864;SDS011;67061;48.524;9.040;2023-01-23T00:53:17;12.57;;;7.47;;
77864;SDS011;67061;48.524;9.040;2023-01-23T00:55:44;15.10;;;8.98;;
77864;SDS011;67061;48.524;9.040;2023-01-23T00:58:11;13.25;;;8.25;;
77864;SDS011;67061;48.524;9.040;2023-01-23T01:00:40;14.02;;;8.80;;
77864;SDS011;67061;48.524;9.040;2023-01-23T01:03:07;12.85;;;8.35;;
77864;SDS011;67061;48.524;9.040;2023-01-23T01:05:34;13.25;;;8.38;;
77864;SDS011;67061;48.524;9.040;2023-01-23T01:08:01;13.98;;;8.45;;
77864;SDS011;67061;48.524;9.040;2023-01-23T01:10:28;14.27;;;9.02;;
77864;SDS011;67061;48.524;9.040;2023-01-23T01:12:57;12.30;;;8.32;;
77864;SDS011;67061;48.524;9.040;2023-01-23T01:15:26;12.35;;;7.72;;
77864;SDS011;67061;48.524;9.040;2023-01-23T01:17:54;13.35;;;7.97;;
77864;SDS011;67061;48.524;9.040;2023-01-23T01:20:21;12.32;;;7.93;;
77864;SDS011;67061;48.524;9.040;2023-01-23T01:22:50;13.00;;;8.20;;
77864;SDS011;67061;48.524;9.040;2023-01-23T01:25:17;11.60;;;7.45;;
77864;SDS011;67061;48.524;9.040;2023-01-23T01:27:45;12.95;;;8.15;;
77864;SDS011;67061;48.524;9.040;2023-01-23T01:30:12;12.60;;;7.78;;
77864;SDS011;67061;48.524;9.040;2023-01-23T01:32:40;13.35;;;7.50;;
77864;SDS011;67061;48.524;9.040;2023-01-23T01:35:09;12.65;;;7.72;;
77864;SDS011;67061;48.524;9.040;2023-01-23T01:37:37;12.05;;;7.35;;
77864;SDS011;67061;48.524;9.040;2023-01-23T01:40:06;12.57;;;6.57;;
77864;SDS011;67061;48.524;9.040;2023-01-23T01:42:37;12.52;;;7.80;;
77864;SDS011;67061;48.524;9.040;2023-01-23T01:45:05;14.02;;;7.85;;
77864;SDS011;67061;48.524;9.040;2023-01-23T01:47:54;13.73;;;7.93;;
77864;SDS011;67061;48.524;9.040;2023-01-23T01:50:21;14.25;;;8.45;;
77864;SDS011;67061;48.524;9.040;2023-01-23T01:52:48;14.15;;;7.88;;
77864;SDS011;67061;48.524;9.040;2023-01-23T01:55:15;13.15;;;8.25;;
77864;SDS011;67061;48.524;9.040;2023-01-23T01:57:43;12.77;;;8.13;;
77864;SDS011;67061;48.524;9.040;2023-01-23T02:00:13;15.05;;;8.13;;
77864;SDS011;67061;48.524;9.040;2023-01-23T02:05:14;14.68;;;8.32;;
77864;SDS011;67061;48.524;9.040;2023-01-23T02:07:45;13.70;;;7.75;;
77864;SDS011;67061;48.524;9.040;2023-01-23T02:10:14;14.32;;;8.07;;
77864;SDS011;67061;48.524;9.040;2023-01-23T02:12:43;13.95;;;8.20;;
77864;SDS011;67061;48.524;9.040;2023-01-23T02:15:11;13.55;;;8.32;;
77864;SDS011;67061;48.524;9.040;2023-01-23T02:17:38;12.80;;;7.03;;
77864;SDS011;67061;48.524;9.040;2023-01-23T02:20:07;12.88;;;7.78;;
77864;SDS011;67061;48.524;9.040;2023-01-23T02:22:43;14.43;;;7.85;;
77864;SDS011;67061;48.524;9.040;2023-01-23T02:25:18;14.80;;;8.77;;
77864;SDS011;67061;48.524;9.040;2023-01-23T02:27:54;14.82;;;7.95;;
77864;SDS011;67061;48.524;9.040;2023-01-23T02:30:20;14.85;;;9.05;;
77864;SDS011;67061;48.524;9.040;2023-01-23T02:32:47;14.38;;;7.68;;
77864;SDS011;67061;48.524;9.040;2023-01-23T02:35:15;14.65;;;8.05;;
77864;SDS011;67061;48.524;9.040;2023-01-23T02:37:47;15.88;;;9.00;;
77864;SDS011;67061;48.524;9.040;2023-01-23T02:40:19;17.83;;;9.15;;
77864;SDS011;67061;48.524;9.040;2023-01-23T02:42:57;13.57;;;8.15;;
77864;SDS011;67061;48.524;9.040;2023-01-23T02:45:25;16.17;;;8.45;;
77864;SDS011;67061;48.524;9.040;2023-01-23T02:47:52;15.30;;;8.32;;
77864;SDS011;67061;48.524;9.040;2023-01-23T02:50:19;15.32;;;9.00;;
77864;SDS011;67061;48.524;9.040;2023-01-23T02:52:46;15.57;;;9.43;;
77864;SDS011;67061;48.524;9.040;2023-01-23T02:55:15;16.00;;;9.57;;
77864;SDS011;67061;48.524;9.040;2023-01-23T02:57:42;16.10;;;8.70;;
77864;SDS011;67061;48.524;9.040;2023-01-23T03:00:12;16.10;;;8.82;;
77864;SDS011;67061;48.524;9.040;2023-01-23T03:02:41;14.95;;;8.35;;
77864;SDS011;67061;48.524;9.040;2023-01-23T03:05:08;14.30;;;8.48;;
77864;SDS011;67061;48.524;9.040;2023-01-23T03:07:35;17.48;;;8.57;;
77864;SDS011;67061;48.524;9.040;2023-01-23T03:10:03;15.50;;;9.25;;
77864;SDS011;67061;48.524;9.040;2023-01-23T03:12:31;15.68;;;8.18;;
77864;SDS011;67061;48.524;9.040;2023-01-23T03:14:58;14.98;;;8.77;;
77864;SDS011;67061;48.524;9.040;2023-01-23T03:17:27;15.95;;;9.00;;
77864;SDS011;67061;48.524;9.040;2023-01-23T03:19:54;15.35;;;8.88;;
77864;SDS011;67061;48.524;9.040;2023-01-23T03:22:21;16.40;;;9.30;;
77864;SDS011;67061;48.524;9.040;2023-01-23T03:24:48;14.07;;;8.55;;
77864;SDS011;67061;48.524;9.040;2023-01-23T03:27:15;14.70;;;8.52;;
77864;SDS011;67061;48.524;9.040;2023-01-23T03:29:42;15.55;;;9.18;;
77864;SDS011;67061;48.524;9.040;2023-01-23T03:32:28;13.70;;;7.43;;
77864;SDS011;67061;48.524;9.040;2023-01-23T03:34:55;14.95;;;9.15;;
77864;SDS011;67061;48.524;9.040;2023-01-23T03:37:23;14.65;;;8.38;;
77864;SDS011;67061;48.524;9.040;2023-01-23T03:39:50;14.65;;;8.43;;
77864;SDS011;67061;48.524;9.040;2023-01-23T03:42:35;15.32;;;7.97;;
77864;SDS011;67061;48.524;9.040;2023-01-23T03:45:02;14.88;;;9.30;;
77864;SDS011;67061;48.524;9.040;2023-01-23T03:47:31;15.55;;;9.40;;
77864;SDS011;67061;48.524;9.040;2023-01-23T03:49:57;15.05;;;8.50;;
77864;SDS011;67061;48.524;9.040;2023-01-23T03:52:24;15.68;;;9.63;;
77864;SDS011;67061;48.524;9.040;2023-01-23T03:54:51;14.68;;;8.27;;
77864;SDS011;67061;48.524;9.040;2023-01-23T03:57:18;16.15;;;8.55;;
77864;SDS011;67061;48.524;9.040;2023-01-23T03:59:45;15.45;;;9.02;;
77864;SDS011;67061;48.524;9.040;2023-01-23T04:02:12;15.20;;;9.10;;
77864;SDS011;67061;48.524;9.040;2023-01-23T04:04:41;13.98;;;8.40;;
77864;SDS011;67061;48.524;9.040;2023-01-23T04:07:09;14.27;;;8.93;;
77864;SDS011;67061;48.524;9.040;2023-01-23T04:09:36;16.45;;;9.48;;
77864;SDS011;67061;48.524;9.040;2023-01-23T04:12:03;15.48;;;8.63;;
77864;SDS011;67061;48.524;9.040;2023-01-23T04:14:30;16.33;;;10.10;;
77864;SDS011;67061;48.524;9.040;2023-01-23T04:17:01;17.50;;;9.50;;
77864;SDS011;67061;48.524;9.040;2023-01-23T04:19:28;16.67;;;9.95;;
77864;SDS011;67061;48.524;9.040;2023-01-23T04:21:56;15.02;;;9.23;;
77864;SDS011;67061;48.524;9.040;2023-01-23T04:24:23;15.38;;;8.73;;
77864;SDS011;67061;48.524;9.040;2023-01-23T04:26:50;13.85;;;7.53;;
77864;SDS011;67061;48.524;9.040;2023-01-23T04:29:17;16.00;;;9.32;;
77864;SDS011;67061;48.524;9.040;2023-01-23T04:31:44;15.50;;;8.88;;
77864;SDS011;67061;48.524;9.040;2023-01-23T04:34:11;14.60;;;7.75;;
77864;SDS011;67061;48.524;9.040;2023-01-23T04:36:38;16.08;;;8.82;;
77864;SDS011;67061;48.524;9.040;2023-01-23T04:39:06;17.42;;;10.32;;
77864;SDS011;67061;48.524;9.040;2023-01-23T04:41:33;15.88;;;9.65;;
77864;SDS011;67061;48.524;9.040;2023-01-23T04:44:00;16.35;;;9.05;;
77864;SDS011;67061;48.524;9.040;2023-01-23T04:46:44;16.48;;;9.95;;
77864;SDS011;67061;48.524;9.040;2023-01-23T04:49:11;16.67;;;9.20;;
77864;SDS011;67061;48.524;9.040;2023-01-23T04:51:38;16.25;;;9.10;;
77864;SDS011;67061;48.524;9.040;2023-01-23T04:54:07;15.48;;;8.02;;
77864;SDS011;67061;48.524;9.040;2023-01-23T04:56:33;17.30;;;9.02;;
77864;SDS011;67061;48.524;9.040;2023-01-23T04:59:00;15.35;;;9.32;;
77864;SDS011;67061;48.524;9.040;2023-01-23T05:01:27;15.52;;;8.50;;
77864;SDS011;67061;48.524;9.040;2023-01-23T05:03:54;15.43;;;8.95;;
77864;SDS011;67061;48.524;9.040;2023-01-23T05:06:21;16.50;;;8.63;;
77864;SDS011;67061;48.524;9.040;2023-01-23T05:08:48;15.70;;;8.70;;
77864;SDS011;67061;48.524;9.040;2023-01-23T05:11:16;18.25;;;8.68;;
77864;SDS011;67061;48.524;9.040;2023-01-23T05:13:43;17.42;;;10.18;;
77864;SDS011;67061;48.524;9.040;2023-01-23T05:16:10;16.85;;;8.77;;
77864;SDS011;67061;48.524;9.040;2023-01-23T05:18:37;17.88;;;9.23;;
77864;SDS011;67061;48.524;9.040;2023-01-23T05:21:04;17.08;;;9.10;;
77864;SDS011;67061;48.524;9.040;2023-01-23T05:23:31;18.85;;;10.20;;
77864;SDS011;67061;48.524;9.040;2023-01-23T05:25:58;16.80;;;9.43;;
77864;SDS011;67061;48.524;9.040;2023-01-23T05:28:26;16.98;;;10.68;;
77864;SDS011;67061;48.524;9.040;2023-01-23T05:30:53;19.00;;;9.85;;
77864;SDS011;67061;48.524;9.040;2023-01-23T05:33:21;18.70;;;9.88;;
77864;SDS011;67061;48.524;9.040;2023-01-23T05:35:47;15.50;;;9.05;;
77864;SDS011;67061;48.524;9.040;2023-01-23T05:38:14;16.40;;;8.52;;
77864;SDS011;67061;48.524;9.040;2023-01-23T05:40:41;15.70;;;8.65;;
77864;SDS011;67061;48.524;9.040;2023-01-23T05:43:08;18.35;;;9.57;;
77864;SDS011;67061;48.524;9.040;2023-01-23T05:45:40;18.05;;;10.02;;
77864;SDS011;67061;48.524;9.040;2023-01-23T05:48:07;15.85;;;8.73;;
77864;SDS011;67061;48.524;9.040;2023-01-23T05:50:34;18.48;;;9.23;;
77864;SDS011;67061;48.524;9.040;2023-01-23T05:53:01;17.73;;;9.82;;
77864;SDS011;67061;48.524;9.040;2023-01-23T05:55:28;18.23;;;9.50;;
77864;SDS011;67061;48.524;9.040;2023-01-23T05:57:55;16.25;;;9.40;;
77864;SDS011;67061;48.524;9.040;2023-01-23T06:00:22;17.25;;;10.25;;
77864;SDS011;67061;48.524;9.040;2023-01-23T06:02:50;16.38;;;9.27;;
77864;SDS011;67061;48.524;9.040;2023-01-23T06:05:17;19.95;;;11.07;;
77864;SDS011;67061;48.524;9.040;2023-01-23T06:07:44;17.15;;;9.23;;
77864;SDS011;67061;48.524;9.040;2023-01-23T06:10:10;15.48;;;8.35;;
77864;SDS011;67061;48.524;9.040;2023-01-23T06:12:37;18.27;;;9.50;;
77864;SDS011;67061;48.524;9.040;2023-01-23T06:15:04;19.08;;;10.00;;
77864;SDS011;67061;48.524;9.040;2023-01-23T06:17:32;18.95;;;10.27;;
77864;SDS011;67061;48.524;9.040;2023-01-23T06:20:00;16.40;;;9.02;;
77864;SDS011;67061;48.524;9.040;2023-01-23T06:22:28;16.70;;;9.10;;
77864;SDS011;67061;48.524;9.040;2023-01-23T06:24:55;17.88;;;9.52;;
77864;SDS011;67061;48.524;9.040;2023-01-23T06:27:21;17.40;;;10.85;;
77864;SDS011;67061;48.524;9.040;2023-01-23T06:29:48;18.88;;;9.43;;
77864;SDS011;67061;48.524;9.040;2023-01-23T06:32:15;16.70;;;8.40;;
77864;SDS011;67061;48.524;9.040;2023-01-23T06:34:42;17.58;;;8.70;;
77864;SDS011;67061;48.524;9.040;2023-01-23T06:37:10;15.23;;;8.55;;
77864;SDS011;67061;48.524;9.040;2023-01-23T06:39:37;16.77;;;9.05;;
77864;SDS011;67061;48.524;9.040;2023-01-23T06:42:04;16.42;;;9.57;;
77864;SDS011;67061;48.524;9.040;2023-01-23T06:44:34;17.10;;;8.75;;
77864;SDS011;67061;48.524;9.040;2023-01-23T06:47:01;17.23;;;8.73;;
77864;SDS011;67061;48.524;9.040;2023-01-23T06:49:28;15.40;;;8.30;;
77864;SDS011;67061;48.524;9.040;2023-01-23T06:51:55;15.70;;;8.07;;
77864;SDS011;67061;48.524;9.040;2023-01-23T06:54:23;17.00;;;9.38;;
77864;SDS011;67061;48.524;9.040;2023-01-23T06:56:50;15.18;;;7.90;;
77864;SDS011;67061;48.524;9.040;2023-01-23T06:59:17;16.92;;;8.52;;
77864;SDS011;67061;48.524;9.040;2023-01-23T07:01:43;15.45;;;8.30;;
77864;SDS011;67061;48.524;9.040;2023-01-23T07:04:10;17.02;;;8.48;;
77864;SDS011;67061;48.524;9.040;2023-01-23T07:06:37;17.20;;;9.85;;
77864;SDS011;67061;48.524;9.040;2023-01-23T07:09:04;15.65;;;8.43;;
77864;SDS011;67061;48.524;9.040;2023-01-23T07:11:32;16.95;;;9.15;;
77864;SDS011;67061;48.524;9.040;2023-01-23T07:14:01;16.60;;;9.35;;
77864;SDS011;67061;48.524;9.040;2023-01-23T07:16:28;16.85;;;8.88;;
77864;SDS011;67061;48.524;9.040;2023-01-23T07:18:55;16.50;;;9.20;;
77864;SDS011;67061;48.524;9.040;2023-01-23T07:21:23;16.83;;;9.13;;
77864;SDS011;67061;48.524;9.040;2023-01-23T07:23:50;18.02;;;8.60;;
77864;SDS011;67061;48.524;9.040;2023-01-23T07:26:17;16.42;;;8.93;;
77864;SDS011;67061;48.524;9.040;2023-01-23T07:28:45;17.48;;;9.13;;
77864;SDS011;67061;48.524;9.040;2023-01-23T07:31:12;16.75;;;8.73;;
77864;SDS011;67061;48.524;9.040;2023-01-23T07:33:40;16.23;;;8.38;;
77864;SDS011;67061;48.524;9.040;2023-01-23T07:36:07;18.02;;;8.73;;
77864;SDS011;67061;48.524;9.040;2023-01-23T07:38:38;20.05;;;9.68;;
77864;SDS011;67061;48.524;9.040;2023-01-23T07:41:05;15.75;;;9.60;;
77864;SDS011;67061;48.524;9.040;2023-01-23T07:43:32;17.60;;;7.72;;
77864;SDS011;67061;48.524;9.040;2023-01-23T07:46:00;16.55;;;9.35;;
77864;SDS011;67061;48.524;9.040;2023-01-23T07:48:27;18.33;;;9.05;;
77864;SDS011;67061;48.524;9.040;2023-01-23T07:50:54;17.55;;;9.35;;
77864;SDS011;67061;48.524;9.040;2023-01-23T07:53:21;15.23;;;7.80;;
77864;SDS011;67061;48.524;9.040;2023-01-23T07:55:48;16.63;;;8.93;;
77864;SDS011;67061;48.524;9.040;2023-01-23T07:58:15;15.75;;;8.85;;
77864;SDS011;67061;48.524;9.040;2023-01-23T08:00:42;15.80;;;8.52;;
77864;SDS011;67061;48.524;9.040;2023-01-23T08:03:11;16.40;;;8.50;;
77864;SDS011;67061;48.524;9.040;2023-01-23T08:05:38;16.40;;;8.02;;
77864;SDS011;67061;48.524;9.040;2023-01-23T08:08:05;13.95;;;7.53;;
77864;SDS011;67061;48.524;9.040;2023-01-23T08:10:33;15.30;;;7.60;;
77864;SDS011;67061;48.524;9.040;2023-01-23T08:13:00;16.83;;;10.00;;
77864;SDS011;67061;48.524;9.040;2023-01-23T08:15:27;15.27;;;8.07;;
77864;SDS011;67061;48.524;9.040;2023-01-23T08:17:53;14.13;;;8.18;;
77864;SDS011;67061;48.524;9.040;2023-01-23T08:20:22;12.73;;;6.68;;
77864;SDS011;67061;48.524;9.040;2023-01-23T08:22:49;12.68;;;6.78;;
77864;SDS011;67061;48.524;9.040;2023-01-23T08:25:16;13.77;;;8.02;;
77864;SDS011;67061;48.524;9.040;2023-01-23T08:27:42;13.80;;;7.65;;
77864;SDS011;67061;48.524;9.040;2023-01-23T08:30:10;13.70;;;6.22;;
77864;SDS011;67061;48.524;9.040;2023-01-23T08:32:37;12.45;;;7.43;;
77864;SDS011;67061;48.524;9.040;2023-01-23T08:35:04;12.77;;;7.60;;
77864;SDS011;67061;48.524;9.040;2023-01-23T08:37:33;14.60;;;9.45;;
77864;SDS011;67061;48.524;9.040;2023-01-23T08:40:00;14.32;;;7.78;;
77864;SDS011;67061;48.524;9.040;2023-01-23T08:42:27;15.80;;;8.15;;
77864;SDS011;67061;48.524;9.040;2023-01-23T08:44:55;13.90;;;7.70;;
77864;SDS011;67061;48.524;9.040;2023-01-23T08:47:22;15.38;;;8.05;;
77864;SDS011;67061;48.524;9.040;2023-01-23T08:49:48;15.52;;;7.30;;
77864;SDS011;67061;48.524;9.040;2023-01-23T08:52:15;13.35;;;6.75;;
77864;SDS011;67061;48.524;9.040;2023-01-23T08:54:43;15.32;;;8.45;;
77864;SDS011;67061;48.524;9.040;2023-01-23T08:57:10;15.05;;;7.45;;
77864;SDS011;67061;48.524;9.040;2023-01-23T08:59:37;14.57;;;8.10;;
77864;SDS011;67061;48.524;9.040;2023-01-23T09:02:04;17.13;;;8.48;;
77864;SDS011;67061;48.524;9.040;2023-01-23T09:04:31;13.68;;;7.07;;
77864;SDS011;67061;48.524;9.040;2023-01-23T09:06:58;14.73;;;8.52;;
77864;SDS011;67061;48.524;9.040;2023-01-23T09:09:25;15.65;;;8.50;;
77864;SDS011;67061;48.524;9.040;2023-01-23T09:11:55;15.02;;;8.07;;
77864;SDS011;67061;48.524;9.040;2023-01-23T09:14:22;16.75;;;8.82;;
77864;SDS011;67061;48.524;9.040;2023-01-23T09:16:49;16.75;;;8.73;;
77864;SDS011;67061;48.524;9.040;2023-01-23T09:19:16;14.57;;;8.95;;
77864;SDS011;67061;48.524;9.040;2023-01-23T09:21:42;15.20;;;7.80;;
77864;SDS011;67061;48.524;9.040;2023-01-23T09:24:09;15.48;;;8.25;;
77864;SDS011;67061;48.524;9.040;2023-01-23T09:26:36;15.80;;;8.60;;
77864;SDS011;67061;48.524;9.040;2023-01-23T09:29:04;15.25;;;7.95;;
77864;SDS011;67061;48.524;9.040;2023-01-23T09:31:31;16.88;;;8.98;;
77864;SDS011;67061;48.524;9.040;2023-01-23T09:33:58;15.63;;;8.52;;
77864;SDS011;67061;48.524;9.040;2023-01-23T09:36:27;16.27;;;8.88;;
77864;SDS011;67061;48.524;9.040;2023-01-23T09:38:54;18.55;;;9.38;;
77864;SDS011;67061;48.524;9.040;2023-01-23T09:41:22;14.90;;;8.10;;
77864;SDS011;67061;48.524;9.040;2023-01-23T09:43:54;15.10;;;8.18;;
77864;SDS011;67061;48.524;9.040;2023-01-23T09:46:27;14.82;;;7.88;;
77864;SDS011;67061;48.524;9.040;2023-01-23T09:48:58;17.45;;;9.18;;
77864;SDS011;67061;48.524;9.040;2023-01-23T09:51:34;16.00;;;8.85;;
77864;SDS011;67061;48.524;9.040;2023-01-23T09:54:14;16.67;;;8.88;;
77864;SDS011;67061;48.524;9.040;2023-01-23T09:56:47;16.38;;;9.07;;
77864;SDS011;67061;48.524;9.040;2023-01-23T09:59:16;15.48;;;7.50;;
77864;SDS011;67061;48.524;9.040;2023-01-23T10:01:54;14.98;;;7.78;;
77864;SDS011;67061;48.524;9.040;2023-01-23T10:04:33;13.73;;;7.30;;
77864;SDS011;67061;48.524;9.040;2023-01-23T10:07:08;15.32;;;8.20;;
77864;SDS011;67061;48.524;9.040;2023-01-23T10:09:54;14.68;;;8.20;;
77864;SDS011;67061;48.524;9.040;2023-01-23T10:12:36;15.27;;;7.47;;
77864;SDS011;67061;48.524;9.040;2023-01-23T10:15:15;14.20;;;8.00;;
77864;SDS011;67061;48.524;9.040;2023-01-23T10:17:50;14.55;;;7.60;;
77864;SDS011;67061;48.524;9.040;2023-01-23T10:20:32;13.55;;;7.78;;
77864;SDS011;67061;48.524;9.040;2023-01-23T10:23:11;14.38;;;7.88;;
77864;SDS011;67061;48.524;9.040;2023-01-23T10:25:55;12.80;;;7.03;;
77864;SDS011;67061;48.524;9.040;2023-01-23T10:28:24;14.85;;;7.72;;
77864;SDS011;67061;48.524;9.040;2023-01-23T10:30:59;12.82;;;7.63;;
77864;SDS011;67061;48.524;9.040;2023-01-23T10:33:32;15.73;;;8.93;;
77864;SDS011;67061;48.524;9.040;2023-01-23T10:36:06;13.02;;;7.40;;
77864;SDS011;67061;48.524;9.040;2023-01-23T10:38:45;13.45;;;7.03;;
77864;SDS011;67061;48.524;9.040;2023-01-23T10:41:18;11.63;;;6.78;;
77864;SDS011;67061;48.524;9.040;2023-01-23T10:43:46;13.00;;;7.35;;
77864;SDS011;67061;48.524;9.040;2023-01-23T10:46:15;12.57;;;7.25;;
77864;SDS011;67061;48.524;9.040;2023-01-23T10:48:46;13.32;;;8.00;;
77864;SDS011;67061;48.524;9.040;2023-01-23T10:51:28;13.32;;;6.47;;
77864;SDS011;67061;48.524;9.040;2023-01-23T10:54:03;12.55;;;7.95;;
77864;SDS011;67061;48.524;9.040;2023-01-23T10:56:32;12.68;;;7.57;;
77864;SDS011;67061;48.524;9.040;2023-01-23T10:59:01;13.88;;;7.53;;
77864;SDS011;67061;48.524;9.040;2023-01-23T11:01:30;14.45;;;7.35;;
77864;SDS011;67061;48.524;9.040;2023-01-23T11:04:09;12.38;;;7.65;;
77864;SDS011;67061;48.524;9.040;2023-01-23T11:07:00;11.35;;;6.38;;
77864;SDS011;67061;48.524;9.040;2023-01-23T11:09:32;11.10;;;6.07;;
77864;SDS011;67061;48.524;9.040;2023-01-23T11:12:18;11.52;;;7.20;;
77864;SDS011;67061;48.524;9.040;2023-01-23T11:17:15;13.57;;;7.43;;
77864;SDS011;67061;48.524;9.040;2023-01-23T11:19:47;11.52;;;7.07;;
77864;SDS011;67061;48.524;9.040;2023-01-23T11:22:25;11.32;;;6.13;;
77864;SDS011;67061;48.524;9.040;2023-01-23T11:24:56;12.77;;;7.32;;
77864;SDS011;67061;48.524;9.040;2023-01-23T11:27:23;12.50;;;6.65;;
77864;SDS011;67061;48.524;9.040;2023-01-23T11:33:03;11.75;;;7.72;;
77864;SDS011;67061;48.524;9.040;2023-01-23T11:35:51;13.63;;;8.10;;
77864;SDS011;67061;48.524;9.040;2023-01-23T11:38:26;11.90;;;6.75;;
77864;SDS011;67061;48.524;9.040;2023-01-23T11:40:56;11.65;;;6.75;;
77864;SDS011;67061;48.524;9.040;2023-01-23T11:43:23;11.00;;;6.55;;
77864;SDS011;67061;48.524;9.040;2023-01-23T11:46:00;12.73;;;7.65;;
77864;SDS011;67061;48.524;9.040;2023-01-23T11:48:46;12.55;;;6.75;;
77864;SDS011;67061;48.524;9.040;2023-01-23T11:51:24;15.98;;;8.65;;
77864;SDS011;67061;48.524;9.040;2023-01-23T11:54:02;13.77;;;8.18;;
77864;SDS011;67061;48.524;9.040;2023-01-23T11:56:52;13.93;;;7.60;;
77864;SDS011;67061;48.524;9.040;2023-01-23T12:02:46;13.73;;;7.47;;
77864;SDS011;67061;48.524;9.040;2023-01-23T12:09:13;12.57;;;6.95;;
77864;SDS011;67061;48.524;9.040;2023-01-23T12:11:53;15.00;;;8.35;;
77864;SDS011;67061;48.524;9.040;2023-01-23T12:14:29;13.43;;;7.50;;
77864;SDS011;67061;48.524;9.040;2023-01-23T12:17:04;13.45;;;7.25;;
77864;SDS011;67061;48.524;9.040;2023-01-23T12:19:47;12.63;;;7.55;;
77864;SDS011;67061;48.524;9.040;2023-01-23T12:22:42;13.85;;;6.68;;
77864;SDS011;67061;48.524;9.040;2023-01-23T12:25:21;15.93;;;8.48;;
77864;SDS011;67061;48.524;9.040;2023-01-23T12:27:55;14.85;;;8.15;;
77864;SDS011;67061;48.524;9.040;2023-01-23T12:30:36;12.90;;;8.18;;
77864;SDS011;67061;48.524;9.040;2023-01-23T12:36:13;14.05;;;8.10;;
77864;SDS011;67061;48.524;9.040;2023-01-23T12:38:52;14.05;;;7.97;;
77864;SDS011;67061;48.524;9.040;2023-01-23T12:41:30;15.45;;;9.70;;
77864;SDS011;67061;48.524;9.040;2023-01-23T12:44:03;15.23;;;8.73;;
77864;SDS011;67061;48.524;9.040;2023-01-23T12:46:38;15.02;;;8.88;;
77864;SDS011;67061;48.524;9.040;2023-01-23T12:49:16;17.00;;;8.15;;
77864;SDS011;67061;48.524;9.040;2023-01-23T12:51:50;16.00;;;8.13;;
77864;SDS011;67061;48.524;9.040;2023-01-23T12:54:23;14.77;;;8.73;;
77864;SDS011;67061;48.524;9.040;2023-01-23T12:57:00;15.15;;;7.85;;
77864;SDS011;67061;48.524;9.040;2023-01-23T12:59:31;14.77;;;7.75;;
77864;SDS011;67061;48.524;9.040;2023-01-23T13:02:08;14.50;;;8.43;;
77864;SDS011;67061;48.524;9.040;2023-01-23T13:04:45;14.43;;;8.23;;
77864;SDS011;67061;48.524;9.040;2023-01-23T13:07:24;14.52;;;9.10;;
77864;SDS011;67061;48.524;9.040;2023-01-23T13:10:19;15.20;;;7.85;;
77864;SDS011;67061;48.524;9.040;2023-01-23T13:13:15;14.88;;;8.02;;
77864;SDS011;67061;48.524;9.040;2023-01-23T13:15:43;17.45;;;10.07;;
77864;SDS011;67061;48.524;9.040;2023-01-23T13:18:27;16.48;;;9.70;;
77864;SDS011;67061;48.524;9.040;2023-01-23T13:20:55;15.57;;;7.95;;
77864;SDS011;67061;48.524;9.040;2023-01-23T13:23:41;13.68;;;8.45;;
77864;SDS011;67061;48.524;9.040;2023-01-23T13:31:31;18.55;;;8.55;;
77864;SDS011;67061;48.524;9.040;2023-01-23T13:40:13;13.45;;;7.82;;
77864;SDS011;67061;48.524;9.040;2023-01-23T13:42:43;15.10;;;8.25;;
77864;SDS011;67061;48.524;9.040;2023-01-23T13:45:23;15.45;;;7.82;;
77864;SDS011;67061;48.524;9.040;2023-01-23T13:51:15;15.85;;;8.07;;
77864;SDS011;67061;48.524;9.040;2023-01-23T13:53:44;16.85;;;8.25;;
77864;SDS011;67061;48.524;9.040;2023-01-23T13:56:30;16.30;;;7.47;;
77864;SDS011;67061;48.524;9.040;2023-01-23T13:59:07;16.33;;;8.25;;
77864;SDS011;67061;48.524;9.040;2023-01-23T14:04:31;14.13;;;8.38;;
77864;SDS011;67061;48.524;9.040;2023-01-23T14:07:24;15.23;;;7.75;;
77864;SDS011;67061;48.524;9.040;2023-01-23T14:10:13;17.38;;;8.40;;
77864;SDS011;67061;48.524;9.040;2023-01-23T14:12:42;13.43;;;7.13;;
77864;SDS011;67061;48.524;9.040;2023-01-23T14:15:21;16.05;;;8.15;;
77864;SDS011;67061;48.524;9.040;2023-01-23T14:18:14;15.13;;;8.65;;
77864;SDS011;67061;48.524;9.040;2023-01-23T14:20:43;13.65;;;6.93;;
77864;SDS011;67061;48.524;9.040;2023-01-23T14:23:19;13.77;;;7.95;;
77864;SDS011;67061;48.524;9.040;2023-01-23T14:25:53;13.93;;;7.28;;
77864;SDS011;67061;48.524;9.040;2023-01-23T14:28:20;15.10;;;7.88;;
77864;SDS011;67061;48.524;9.040;2023-01-23T14:30:56;14.57;;;7.70;;
77864;SDS011;67061;48.524;9.040;2023-01-23T14:33:25;16.70;;;7.78;;
77864;SDS011;67061;48.524;9.040;2023-01-23T14:35:52;12.73;;;7.05;;
77864;SDS011;67061;48.524;9.040;2023-01-23T14:38:30;14.07;;;6.55;;
77864;SDS011;67061;48.524;9.040;2023-01-23T14:41:01;13.57;;;7.60;;
77864;SDS011;67061;48.524;9.040;2023-01-23T14:43:30;15.30;;;8.18;;
77864;SDS011;67061;48.524;9.040;2023-01-23T14:46:00;13.40;;;7.85;;
77864;SDS011;67061;48.524;9.040;2023-01-23T14:48:31;12.68;;;7.75;;
77864;SDS011;67061;48.524;9.040;2023-01-23T14:51:05;15.20;;;7.78;;
77864;SDS011;67061;48.524;9.040;2023-01-23T14:53:38;14.30;;;7.57;;
77864;SDS011;67061;48.524;9.040;2023-01-23T14:56:06;13.68;;;7.53;;
77864;SDS011;67061;48.524;9.040;2023-01-23T14:58:34;14.23;;;8.05;;
77864;SDS011;67061;48.524;9.040;2023-01-23T15:01:04;14.20;;;7.82;;
77864;SDS011;67061;48.524;9.040;2023-01-23T15:03:38;14.15;;;7.50;;
77864;SDS011;67061;48.524;9.040;2023-01-23T15:06:09;14.85;;;7.47;;
77864;SDS011;67061;48.524;9.040;2023-01-23T15:08:39;14.07;;;7.47;;
77864;SDS011;67061;48.524;9.040;2023-01-23T15:11:07;13.05;;;7.97;;
77864;SDS011;67061;48.524;9.040;2023-01-23T15:13:41;14.32;;;8.13;;
77864;SDS011;67061;48.524;9.040;2023-01-23T15:16:13;14.13;;;7.75;;
77864;SDS011;67061;48.524;9.040;2023-01-23T15:18:50;14.10;;;7.57;;
77864;SDS011;67061;48.524;9.040;2023-01-23T15:21:27;14.98;;;7.90;;
77864;SDS011;67061;48.524;9.040;2023-01-23T15:26:31;15.68;;;7.30;;
77864;SDS011;67061;48.524;9.040;2023-01-23T15:29:00;14.45;;;8.10;;
77864;SDS011;67061;48.524;9.040;2023-01-23T15:31:30;14.15;;;7.63;;